sensor_id;sensor_type;location;lat;lon;timestamp;pressure;altitude;pressure_sealevel;temperature;humidity
20037;BME280;10179;42.640;23.312;2022-10-30T00:00:01;94437.03;;;14.99;45.64
20037;BME280;10179;42.640;23.312;2022-10-30T00:02:26;94379.25;;;14.56;45.57
20037;BME280;10179;42.640;23.312;2022-10-30T00:04:51;94466.00;;;15.18;45.68
20037;BME280;10179;42.640;23.312;2022-10-30T00:07:17;94468.06;;;15.16;45.64
20037;BME280;10179;42.640;23.312;2022-10-30T00:09:42;94466.47;;;15.15;45.75
20037;BME280;10179;42.640;23.312;2022-10-30T00:12:08;94473.34;;;15.16;45.81
20037;BME280;10179;42.640;23.312;2022-10-30T00:14:33;94468.31;;;15.14;45.82
20037;BME280;10179;42.640;23.312;2022-10-30T00:16:58;94468.06;;;15.16;45.85
20037;BME280;10179;42.640;23.312;2022-10-30T00:19:24;94337.28;;;14.36;45.68
20037;BME280;10179;42.640;23.312;2022-10-30T00:21:49;94461.16;;;15.15;45.70
20037;BME280;10179;42.640;23.312;2022-10-30T00:24:14;94461.63;;;15.12;45.48
20037;BME280;10179;42.640;23.312;2022-10-30T00:26:40;94469.56;;;15.12;45.69
20037;BME280;10179;42.640;23.312;2022-10-30T00:29:05;94325.34;;;14.22;45.71
20037;BME280;10179;42.640;23.312;2022-10-30T00:31:31;94464.28;;;15.12;45.49
20037;BME280;10179;42.640;23.312;2022-10-30T00:33:56;94391.88;;;14.66;45.40
20037;BME280;10179;42.640;23.312;2022-10-30T00:36:22;94465.44;;;15.04;45.56
20037;BME280;10179;42.640;23.312;2022-10-30T00:38:47;94439.47;;;14.89;45.67
20037;BME280;10179;42.640;23.312;2022-10-30T00:41:18;94460.94;;;15.04;46.26
20037;BME280;10179;42.640;23.312;2022-10-30T00:43:44;94329.13;;;14.02;46.39
20037;BME280;10179;42.640;23.312;2022-10-30T00:46:22;94452.66;;;15.13;46.40
20037;BME280;10179;42.640;23.312;2022-10-30T00:48:59;94456.69;;;15.15;46.08
20037;BME280;10179;42.640;23.312;2022-10-30T00:51:28;94407.59;;;14.84;45.97
20037;BME280;10179;42.640;23.312;2022-10-30T00:53:55;94448.19;;;15.13;46.10
20037;BME280;10179;42.640;23.312;2022-10-30T00:56:23;94432.91;;;15.03;46.21
20037;BME280;10179;42.640;23.312;2022-10-30T00:58:55;94448.53;;;15.17;46.37
20037;BME280;10179;42.640;23.312;2022-10-30T01:01:25;94287.78;;;14.08;46.41
20037;BME280;10179;42.640;23.312;2022-10-30T01:03:55;94406.00;;;14.83;46.42
20037;BME280;10179;42.640;23.312;2022-10-30T01:06:22;94456.34;;;15.12;46.49
20037;BME280;10179;42.640;23.312;2022-10-30T01:08:50;94450.72;;;15.08;46.36
20037;BME280;10179;42.640;23.312;2022-10-30T01:11:15;94434.75;;;14.91;46.32
20037;BME280;10179;42.640;23.312;2022-10-30T01:13:43;94446.25;;;14.97;46.48
20037;BME280;10179;42.640;23.312;2022-10-30T01:17:04;94322.81;;;14.27;46.29
20037;BME280;10179;42.640;23.312;2022-10-30T01:36:21;94417.59;;;14.47;46.55
20037;BME280;10179;42.640;23.312;2022-10-30T01:38:53;94417.47;;;14.30;46.65
20037;BME280;10179;42.640;23.312;2022-10-30T01:41:20;94424.72;;;14.23;46.74
20037;BME280;10179;42.640;23.312;2022-10-30T01:43:49;94382.53;;;14.04;47.08
20037;BME280;10179;42.640;23.312;2022-10-30T01:49:18;94420.72;;;14.32;47.47
20037;BME280;10179;42.640;23.312;2022-10-30T02:00:39;94415.69;;;14.00;47.22
20037;BME280;10179;42.640;23.312;2022-10-30T02:03:07;94099.03;;;11.98;47.12
20037;BME280;10179;42.640;23.312;2022-10-30T02:05:46;94409.06;;;13.98;47.17
20037;BME280;10179;42.640;23.312;2022-10-30T02:08:12;94413.19;;;13.64;47.22
20037;BME280;10179;42.640;23.312;2022-10-30T02:10:38;94404.91;;;13.90;47.18
20037;BME280;10179;42.640;23.312;2022-10-30T02:13:03;94403.88;;;13.91;47.44
20037;BME280;10179;42.640;23.312;2022-10-30T02:15:29;94395.25;;;13.96;47.50
20037;BME280;10179;42.640;23.312;2022-10-30T02:17:56;94398.84;;;14.01;47.95
20037;BME280;10179;42.640;23.312;2022-10-30T02:20:22;94362.16;;;13.81;48.08
20037;BME280;10179;42.640;23.312;2022-10-30T02:22:48;94348.50;;;13.73;48.22
20037;BME280;10179;42.640;23.312;2022-10-30T02:25:14;94295.41;;;13.39;48.22
20037;BME280;10179;42.640;23.312;2022-10-30T02:27:39;94388.13;;;13.84;48.54
20037;BME280;10179;42.640;23.312;2022-10-30T02:30:05;94396.75;;;14.03;48.71
20037;BME280;10179;42.640;23.312;2022-10-30T02:32:31;94399.84;;;14.00;48.67
20037;BME280;10179;42.640;23.312;2022-10-30T02:34:57;94366.28;;;13.77;48.39
20037;BME280;10179;42.640;23.312;2022-10-30T02:37:22;94305.13;;;13.27;48.52
20037;BME280;10179;42.640;23.312;2022-10-30T02:39:49;94332.44;;;13.32;48.85
20037;BME280;10179;42.640;23.312;2022-10-30T02:42:14;94389.75;;;13.55;49.60
20037;BME280;10179;42.640;23.312;2022-10-30T02:44:40;94401.38;;;13.66;49.60
20037;BME280;10179;42.640;23.312;2022-10-30T02:47:05;94395.75;;;13.63;49.90
20037;BME280;10179;42.640;23.312;2022-10-30T02:49:31;94393.56;;;13.59;49.59
20037;BME280;10179;42.640;23.312;2022-10-30T02:51:56;94401.91;;;13.56;49.73
20037;BME280;10179;42.640;23.312;2022-10-30T02:54:21;94403.41;;;13.52;50.25
20037;BME280;10179;42.640;23.312;2022-10-30T02:56:47;94372.22;;;13.31;50.35
20037;BME280;10179;42.640;23.312;2022-10-30T02:59:12;94402.81;;;13.50;50.53
20037;BME280;10179;42.640;23.312;2022-10-30T03:01:37;94226.09;;;12.41;50.89
20037;BME280;10179;42.640;23.312;2022-10-30T03:04:03;94394.34;;;13.48;51.01
20037;BME280;10179;42.640;23.312;2022-10-30T03:06:29;94377.16;;;13.27;50.81
20037;BME280;10179;42.640;23.312;2022-10-30T03:08:54;94359.75;;;13.20;50.96
20037;BME280;10179;42.640;23.312;2022-10-30T03:11:19;94289.97;;;12.55;51.03
20037;BME280;10179;42.640;23.312;2022-10-30T03:13:46;94415.44;;;13.48;50.98
20037;BME280;10179;42.640;23.312;2022-10-30T03:16:14;94252.06;;;12.38;51.11
20037;BME280;10179;42.640;23.312;2022-10-30T03:18:40;94417.63;;;13.51;51.37
20037;BME280;10179;42.640;23.312;2022-10-30T03:21:08;94424.28;;;13.54;51.49
20037;BME280;10179;42.640;23.312;2022-10-30T03:23:34;94424.06;;;13.55;51.53
20037;BME280;10179;42.640;23.312;2022-10-30T03:25:59;94356.63;;;13.11;51.85
20037;BME280;10179;42.640;23.312;2022-10-30T03:28:27;94418.34;;;13.58;51.88
20037;BME280;10179;42.640;23.312;2022-10-30T03:31:01;94425.34;;;13.65;51.88
20037;BME280;10179;42.640;23.312;2022-10-30T03:33:28;94322.88;;;13.01;51.96
20037;BME280;10179;42.640;23.312;2022-10-30T03:35:54;94395.13;;;13.49;51.98
20037;BME280;10179;42.640;23.312;2022-10-30T03:38:19;94375.00;;;13.36;51.54
20037;BME280;10179;42.640;23.312;2022-10-30T03:40:45;94402.97;;;13.55;51.76
20037;BME280;10179;42.640;23.312;2022-10-30T03:43:10;94360.97;;;13.24;51.63
20037;BME280;10179;42.640;23.312;2022-10-30T03:45:35;94400.75;;;13.52;51.87
20037;BME280;10179;42.640;23.312;2022-10-30T03:48:02;94401.22;;;13.49;51.86
20037;BME280;10179;42.640;23.312;2022-10-30T03:50:28;94402.81;;;13.50;52.12
20037;BME280;10179;42.640;23.312;2022-10-30T03:52:54;94379.25;;;13.19;52.46
20037;BME280;10179;42.640;23.312;2022-10-30T03:55:20;94301.56;;;12.84;52.44
20037;BME280;10179;42.640;23.312;2022-10-30T03:57:45;94284.69;;;12.74;52.47
20037;BME280;10179;42.640;23.312;2022-10-30T04:00:12;94405.69;;;13.49;52.67
20037;BME280;10179;42.640;23.312;2022-10-30T04:02:37;94411.00;;;13.60;52.65
20037;BME280;10179;42.640;23.312;2022-10-30T04:05:03;94281.75;;;12.82;52.71
20037;BME280;10179;42.640;23.312;2022-10-30T04:07:28;94403.09;;;13.60;52.53
20037;BME280;10179;42.640;23.312;2022-10-30T04:09:54;94289.50;;;12.95;52.53
20037;BME280;10179;42.640;23.312;2022-10-30T04:12:19;94397.09;;;13.53;52.57
20037;BME280;10179;42.640;23.312;2022-10-30T04:14:45;94395.13;;;13.49;52.81
20037;BME280;10179;42.640;23.312;2022-10-30T04:17:10;94308.75;;;12.96;52.90
20037;BME280;10179;42.640;23.312;2022-10-30T04:19:36;94382.59;;;13.44;53.11
20037;BME280;10179;42.640;23.312;2022-10-30T04:22:01;94393.13;;;13.44;53.29
20037;BME280;10179;42.640;23.312;2022-10-30T04:24:26;94374.19;;;13.35;53.55
20037;BME280;10179;42.640;23.312;2022-10-30T04:26:52;94389.41;;;13.52;53.36
20037;BME280;10179;42.640;23.312;2022-10-30T04:29:17;94397.44;;;13.57;53.34
20037;BME280;10179;42.640;23.312;2022-10-30T04:31:43;94399.41;;;13.61;53.12
20037;BME280;10179;42.640;23.312;2022-10-30T04:34:08;94323.28;;;13.17;52.98
20037;BME280;10179;42.640;23.312;2022-10-30T04:36:33;94304.13;;;12.91;52.98
20037;BME280;10179;42.640;23.312;2022-10-30T04:38:59;94375.97;;;13.53;53.06
20037;BME280;10179;42.640;23.312;2022-10-30T04:41:25;94395.31;;;13.66;52.98
20037;BME280;10179;42.640;23.312;2022-10-30T04:43:51;94397.94;;;13.66;53.12
20037;BME280;10179;42.640;23.312;2022-10-30T04:46:16;94395.75;;;13.63;53.24
20037;BME280;10179;42.640;23.312;2022-10-30T04:48:43;94399.41;;;13.61;53.07
20037;BME280;10179;42.640;23.312;2022-10-30T04:51:08;94399.41;;;13.61;53.33
20037;BME280;10179;42.640;23.312;2022-10-30T04:53:36;94242.09;;;12.58;53.20
20037;BME280;10179;42.640;23.312;2022-10-30T04:56:03;94323.03;;;13.06;53.10
20037;BME280;10179;42.640;23.312;2022-10-30T04:58:28;94401.56;;;13.53;53.33
20037;BME280;10179;42.640;23.312;2022-10-30T05:00:54;94408.94;;;13.63;52.86
20037;BME280;10179;42.640;23.312;2022-10-30T05:03:21;94309.41;;;12.91;52.31
20037;BME280;10179;42.640;23.312;2022-10-30T05:05:48;94345.72;;;13.07;52.13
20037;BME280;10179;42.640;23.312;2022-10-30T05:08:19;94410.81;;;13.74;51.70
20037;BME280;10179;42.640;23.312;2022-10-30T05:10:45;94408.09;;;13.50;51.74
20037;BME280;10179;42.640;23.312;2022-10-30T05:13:10;94413.69;;;13.42;51.98
20037;BME280;10179;42.640;23.312;2022-10-30T05:15:36;94409.88;;;13.38;51.96
20037;BME280;10179;42.640;23.312;2022-10-30T05:18:02;94247.47;;;12.33;52.18
20037;BME280;10179;42.640;23.312;2022-10-30T05:20:27;94418.38;;;13.40;52.97
20037;BME280;10179;42.640;23.312;2022-10-30T05:22:57;94379.78;;;13.27;53.07
20037;BME280;10179;42.640;23.312;2022-10-30T05:25:23;94373.91;;;13.25;53.17
20037;BME280;10179;42.640;23.312;2022-10-30T05:27:49;94249.88;;;12.53;53.25
20037;BME280;10179;42.640;23.312;2022-10-30T05:30:14;94416.56;;;13.82;53.32
20037;BME280;10179;42.640;23.312;2022-10-30T05:32:40;94430.53;;;14.01;53.31
20037;BME280;10179;42.640;23.312;2022-10-30T05:35:06;94421.25;;;14.22;52.87
20037;BME280;10179;42.640;23.312;2022-10-30T05:37:31;94367.94;;;14.14;52.74
20037;BME280;10179;42.640;23.312;2022-10-30T05:39:57;94259.19;;;13.70;52.49
20037;BME280;10179;42.640;23.312;2022-10-30T05:42:22;94340.72;;;14.48;51.64
20037;BME280;10179;42.640;23.312;2022-10-30T05:44:47;94419.50;;;15.22;50.54
20037;BME280;10179;42.640;23.312;2022-10-30T05:47:13;94413.38;;;15.33;49.82
20037;BME280;10179;42.640;23.312;2022-10-30T05:49:38;94323.38;;;15.04;49.23
20037;BME280;10179;42.640;23.312;2022-10-30T05:52:04;94383.22;;;15.63;48.97
20037;BME280;10179;42.640;23.312;2022-10-30T05:54:29;94424.84;;;16.08;48.29
20037;BME280;10179;42.640;23.312;2022-10-30T05:56:56;94347.19;;;15.90;47.83
20037;BME280;10179;42.640;23.312;2022-10-30T05:59:21;94409.50;;;16.60;47.03
20037;BME280;10179;42.640;23.312;2022-10-30T06:01:46;94381.28;;;16.71;46.46
20037;BME280;10179;42.640;23.312;2022-10-30T06:04:12;94409.53;;;17.21;45.96
20037;BME280;10179;42.640;23.312;2022-10-30T06:06:37;94393.38;;;17.45;45.39
20037;BME280;10179;42.640;23.312;2022-10-30T06:09:03;94394.78;;;17.79;44.38
20037;BME280;10179;42.640;23.312;2022-10-30T06:11:28;94390.28;;;18.07;43.42
20037;BME280;10179;42.640;23.312;2022-10-30T06:13:53;94337.56;;;17.94;42.85
20037;BME280;10179;42.640;23.312;2022-10-30T06:16:19;94408.44;;;18.52;42.44
20037;BME280;10179;42.640;23.312;2022-10-30T06:18:44;94418.88;;;18.59;42.25
20037;BME280;10179;42.640;23.312;2022-10-30T06:21:09;94386.06;;;18.43;42.44
20037;BME280;10179;42.640;23.312;2022-10-30T06:23:35;94378.81;;;18.39;42.34
20037;BME280;10179;42.640;23.312;2022-10-30T06:26:00;94376.75;;;18.46;42.19
20037;BME280;10179;42.640;23.312;2022-10-30T06:28:25;94416.41;;;18.84;42.38
20037;BME280;10179;42.640;23.312;2022-10-30T06:30:53;94352.34;;;18.54;42.06
20037;BME280;10179;42.640;23.312;2022-10-30T06:33:18;94415.53;;;19.16;41.60
20037;BME280;10179;42.640;23.312;2022-10-30T06:35:43;94400.38;;;19.22;41.34
20037;BME280;10179;42.640;23.312;2022-10-30T06:38:09;94406.31;;;19.39;40.93
20037;BME280;10179;42.640;23.312;2022-10-30T06:40:36;94312.91;;;18.93;40.59
20037;BME280;10179;42.640;23.312;2022-10-30T06:43:01;94423.28;;;19.81;40.51
20037;BME280;10179;42.640;23.312;2022-10-30T06:45:26;94421.69;;;20.00;40.12
20037;BME280;10179;42.640;23.312;2022-10-30T06:47:52;94405.72;;;20.10;39.95
20037;BME280;10179;42.640;23.312;2022-10-30T06:50:19;94421.50;;;20.37;39.27
20037;BME280;10179;42.640;23.312;2022-10-30T06:52:45;94402.00;;;20.37;38.88
20037;BME280;10179;42.640;23.312;2022-10-30T06:55:10;94190.97;;;18.95;38.79
20037;BME280;10179;42.640;23.312;2022-10-30T06:57:36;94361.66;;;19.72;38.99
20037;BME280;10179;42.640;23.312;2022-10-30T07:00:03;94429.22;;;20.23;39.36
20037;BME280;10179;42.640;23.312;2022-10-30T07:02:29;94441.72;;;20.08;39.59
20037;BME280;10179;42.640;23.312;2022-10-30T07:04:54;94312.22;;;19.13;40.03
20037;BME280;10179;42.640;23.312;2022-10-30T07:07:20;94433.41;;;19.84;40.20
20037;BME280;10179;42.640;23.312;2022-10-30T07:09:45;94429.13;;;19.77;40.51
20037;BME280;10179;42.640;23.312;2022-10-30T07:12:11;94326.03;;;19.10;40.71
20037;BME280;10179;42.640;23.312;2022-10-30T07:14:37;94424.59;;;19.78;40.79
20037;BME280;10179;42.640;23.312;2022-10-30T07:17:02;94427.81;;;19.85;40.59
20037;BME280;10179;42.640;23.312;2022-10-30T07:19:28;94013.53;;;17.34;40.52
20037;BME280;10179;42.640;23.312;2022-10-30T07:21:53;94431.88;;;20.13;40.39
20037;BME280;10179;42.640;23.312;2022-10-30T07:24:18;94420.97;;;20.40;40.12
20037;BME280;10179;42.640;23.312;2022-10-30T07:26:44;94330.00;;;20.11;39.45
20037;BME280;10179;42.640;23.312;2022-10-30T07:29:09;94417.75;;;20.89;39.01
20037;BME280;10179;42.640;23.312;2022-10-30T07:31:35;94400.63;;;21.01;38.40
20037;BME280;10179;42.640;23.312;2022-10-30T07:34:00;94397.63;;;21.23;37.94
20037;BME280;10179;42.640;23.312;2022-10-30T07:36:26;94294.69;;;20.70;37.77
20037;BME280;10179;42.640;23.312;2022-10-30T07:38:51;94244.56;;;20.57;37.16
20037;BME280;10179;42.640;23.312;2022-10-30T07:41:18;94314.00;;;21.22;37.21
20037;BME280;10179;42.640;23.312;2022-10-30T07:43:44;94412.78;;;22.02;36.61
20037;BME280;10179;42.640;23.312;2022-10-30T07:46:09;94396.69;;;22.07;36.45
20037;BME280;10179;42.640;23.312;2022-10-30T07:48:35;94398.75;;;22.26;36.37
20037;BME280;10179;42.640;23.312;2022-10-30T07:51:00;94313.44;;;21.80;35.90
20037;BME280;10179;42.640;23.312;2022-10-30T07:53:26;94368.41;;;22.35;35.71
20037;BME280;10179;42.640;23.312;2022-10-30T07:55:51;94370.41;;;22.54;35.49
20037;BME280;10179;42.640;23.312;2022-10-30T07:58:16;94353.81;;;22.52;35.43
20037;BME280;10179;42.640;23.312;2022-10-30T08:00:42;94383.81;;;22.78;35.16
20037;BME280;10179;42.640;23.312;2022-10-30T08:03:08;94384.53;;;22.94;35.32
20037;BME280;10179;42.640;23.312;2022-10-30T08:05:34;94387.25;;;23.13;35.02
20037;BME280;10179;42.640;23.312;2022-10-30T08:08:00;94385.31;;;23.18;34.81
20037;BME280;10179;42.640;23.312;2022-10-30T08:10:25;94379.63;;;23.25;34.77
20037;BME280;10179;42.640;23.312;2022-10-30T08:12:51;94340.50;;;23.00;34.65
20037;BME280;10179;42.640;23.312;2022-10-30T08:15:16;94267.97;;;22.43;34.56
20037;BME280;10179;42.640;23.312;2022-10-30T08:17:43;94384.53;;;23.18;35.11
20037;BME280;10179;42.640;23.312;2022-10-30T08:20:10;94369.59;;;23.12;34.96
20037;BME280;10179;42.640;23.312;2022-10-30T08:22:53;94342.22;;;23.15;34.58
20037;BME280;10179;42.640;23.312;2022-10-30T08:25:20;94379.78;;;23.33;34.53
20037;BME280;10179;42.640;23.312;2022-10-30T08:27:55;94360.56;;;23.26;34.61
20037;BME280;10179;42.640;23.312;2022-10-30T08:30:23;94382.25;;;23.30;34.93
20037;BME280;10179;42.640;23.312;2022-10-30T08:32:49;94364.19;;;23.17;34.98
20037;BME280;10179;42.640;23.312;2022-10-30T08:35:15;94268.66;;;22.54;34.86
20037;BME280;10179;42.640;23.312;2022-10-30T08:37:41;94290.22;;;22.68;35.02
20037;BME280;10179;42.640;23.312;2022-10-30T08:40:08;94364.34;;;23.01;34.64
20037;BME280;10179;42.640;23.312;2022-10-30T08:42:33;94380.53;;;23.15;34.85
20037;BME280;10179;42.640;23.312;2022-10-30T08:44:59;94388.75;;;23.24;34.85
20037;BME280;10179;42.640;23.312;2022-10-30T08:47:24;94353.72;;;23.15;34.75
20037;BME280;10179;42.640;23.312;2022-10-30T08:49:49;94322.72;;;22.85;34.67
20037;BME280;10179;42.640;23.312;2022-10-30T08:52:15;94392.47;;;23.28;34.93
20037;BME280;10179;42.640;23.312;2022-10-30T08:54:40;94379.66;;;23.44;34.72
20037;BME280;10179;42.640;23.312;2022-10-30T08:57:05;94375.94;;;23.64;34.22
20037;BME280;10179;42.640;23.312;2022-10-30T08:59:31;94368.38;;;23.66;33.82
20037;BME280;10179;42.640;23.312;2022-10-30T09:01:56;94368.22;;;23.38;33.87
20037;BME280;10179;42.640;23.312;2022-10-30T09:04:22;94345.47;;;23.54;33.91
20037;BME280;10179;42.640;23.312;2022-10-30T09:06:47;94358.16;;;23.73;33.85
20037;BME280;10179;42.640;23.312;2022-10-30T09:09:12;94359.72;;;23.74;33.57
20037;BME280;10179;42.640;23.312;2022-10-30T09:11:38;94355.53;;;23.68;33.55
20037;BME280;10179;42.640;23.312;2022-10-30T09:14:04;94354.59;;;23.53;33.83
20037;BME280;10179;42.640;23.312;2022-10-30T09:16:29;94088.91;;;21.70;34.07
20037;BME280;10179;42.640;23.312;2022-10-30T09:18:54;94351.38;;;23.32;34.35
20037;BME280;10179;42.640;23.312;2022-10-30T09:21:20;94228.41;;;22.35;34.55
20037;BME280;10179;42.640;23.312;2022-10-30T09:23:45;94353.47;;;23.17;35.08
20037;BME280;10179;42.640;23.312;2022-10-30T09:26:11;94354.31;;;23.12;34.45
20037;BME280;10179;42.640;23.312;2022-10-30T09:28:36;94358.94;;;23.06;35.10
20037;BME280;10179;42.640;23.312;2022-10-30T09:31:02;94309.47;;;22.70;35.09
20037;BME280;10179;42.640;23.312;2022-10-30T09:33:28;94356.78;;;22.79;35.16
20037;BME280;10179;42.640;23.312;2022-10-30T09:35:53;94329.31;;;22.39;35.89
20037;BME280;10179;42.640;23.312;2022-10-30T09:38:19;94366.97;;;22.48;36.29
20037;BME280;10179;42.640;23.312;2022-10-30T09:49:07;94337.69;;;22.28;36.65
20037;BME280;10179;42.640;23.312;2022-10-30T09:54:30;94322.09;;;22.35;36.43
20037;BME280;10179;42.640;23.312;2022-10-30T10:00:04;94316.81;;;22.59;35.97
20037;BME280;10179;42.640;23.312;2022-10-30T10:02:37;94316.03;;;22.53;36.12
20037;BME280;10179;42.640;23.312;2022-10-30T10:05:16;94316.28;;;22.57;36.50
20037;BME280;10179;42.640;23.312;2022-10-30T10:07:52;94311.19;;;22.60;36.18
20037;BME280;10179;42.640;23.312;2022-10-30T10:10:33;94304.16;;;22.65;36.21
20037;BME280;10179;42.640;23.312;2022-10-30T10:13:02;94298.81;;;22.65;36.12
20037;BME280;10179;42.640;23.312;2022-10-30T10:15:33;94298.56;;;22.61;35.76
20037;BME280;10179;42.640;23.312;2022-10-30T10:18:03;94191.59;;;21.98;35.74
20037;BME280;10179;42.640;23.312;2022-10-30T10:20:36;94273.69;;;22.60;35.99
20037;BME280;10179;42.640;23.312;2022-10-30T10:23:15;94268.91;;;22.57;35.69
20037;BME280;10179;42.640;23.312;2022-10-30T10:25:44;94207.53;;;22.08;35.76
20037;BME280;10179;42.640;23.312;2022-10-30T10:37:14;94263.44;;;22.68;35.17
20037;BME280;10179;42.640;23.312;2022-10-30T10:42:34;94258.06;;;22.68;34.66
20037;BME280;10179;42.640;23.312;2022-10-30T10:45:31;94252.13;;;22.71;34.39
20037;BME280;10179;42.640;23.312;2022-10-30T10:48:16;94250.66;;;22.59;34.93
20037;BME280;10179;42.640;23.312;2022-10-30T10:50:58;94246.09;;;22.60;34.73
20037;BME280;10179;42.640;23.312;2022-10-30T10:53:39;94258.63;;;22.65;34.73
20037;BME280;10179;42.640;23.312;2022-10-30T10:56:06;94246.38;;;22.58;35.02
20037;BME280;10179;42.640;23.312;2022-10-30T10:58:48;94245.53;;;22.63;35.44
20037;BME280;10179;42.640;23.312;2022-10-30T11:01:28;94247.22;;;22.78;35.05
20037;BME280;10179;42.640;23.312;2022-10-30T11:04:02;94234.13;;;22.76;34.87
20037;BME280;10179;42.640;23.312;2022-10-30T11:06:34;94234.34;;;22.80;34.90
20037;BME280;10179;42.640;23.312;2022-10-30T11:09:17;94235.81;;;22.91;34.68
20037;BME280;10179;42.640;23.312;2022-10-30T11:11:47;94224.06;;;22.87;34.82
20037;BME280;10179;42.640;23.312;2022-10-30T11:14:16;94134.69;;;22.40;34.49
20037;BME280;10179;42.640;23.312;2022-10-30T11:19:11;94102.34;;;22.36;34.36
20037;BME280;10179;42.640;23.312;2022-10-30T11:21:47;94214.38;;;23.15;34.44
20037;BME280;10179;42.640;23.312;2022-10-30T11:26:54;94201.84;;;23.10;34.30
20037;BME280;10179;42.640;23.312;2022-10-30T11:29:28;94153.75;;;23.00;33.64
20037;BME280;10179;42.640;23.312;2022-10-30T11:32:17;94184.38;;;23.32;33.47
20037;BME280;10179;42.640;23.312;2022-10-30T11:34:59;94186.31;;;23.45;33.63
20037;BME280;10179;42.640;23.312;2022-10-30T11:37:31;94186.97;;;23.37;33.08
20037;BME280;10179;42.640;23.312;2022-10-30T11:42:31;94186.75;;;23.52;32.94
20037;BME280;10179;42.640;23.312;2022-10-30T11:44:56;94189.34;;;23.57;32.58
20037;BME280;10179;42.640;23.312;2022-10-30T11:47:31;94175.22;;;23.71;32.77
20037;BME280;10179;42.640;23.312;2022-10-30T11:49:58;94158.59;;;23.69;32.71
20037;BME280;10179;42.640;23.312;2022-10-30T11:52:26;94173.34;;;23.85;32.11
20037;BME280;10179;42.640;23.312;2022-10-30T11:55:02;94034.75;;;23.01;32.27
20037;BME280;10179;42.640;23.312;2022-10-30T11:57:36;94136.56;;;23.72;32.14
20037;BME280;10179;42.640;23.312;2022-10-30T12:00:17;94141.94;;;23.86;31.87
20037;BME280;10179;42.640;23.312;2022-10-30T12:02:45;94141.47;;;23.84;31.26
20037;BME280;10179;42.640;23.312;2022-10-30T12:07:52;94124.56;;;23.83;31.05
20037;BME280;10179;42.640;23.312;2022-10-30T12:10:28;94152.94;;;24.17;31.36
20037;BME280;10179;42.640;23.312;2022-10-30T12:12:54;94168.44;;;24.20;31.29
20037;BME280;10179;42.640;23.312;2022-10-30T12:15:23;94140.59;;;24.16;30.91
20037;BME280;10179;42.640;23.312;2022-10-30T12:18:00;94164.88;;;24.38;30.55
20037;BME280;10179;42.640;23.312;2022-10-30T12:20:27;94161.69;;;24.36;30.58
20037;BME280;10179;42.640;23.312;2022-10-30T12:22:53;94134.47;;;24.29;30.49
20037;BME280;10179;42.640;23.312;2022-10-30T12:25:23;94160.91;;;24.49;30.23
20037;BME280;10179;42.640;23.312;2022-10-30T12:28:00;94151.97;;;24.54;29.95
20037;BME280;10179;42.640;23.312;2022-10-30T12:30:31;94137.16;;;24.43;29.93
20037;BME280;10179;42.640;23.312;2022-10-30T12:33:03;94151.19;;;24.54;29.85
20037;BME280;10179;42.640;23.312;2022-10-30T12:37:57;94147.78;;;24.62;29.85
20037;BME280;10179;42.640;23.312;2022-10-30T12:40:29;94111.59;;;24.45;30.01
20037;BME280;10179;42.640;23.312;2022-10-30T12:43:30;94134.63;;;24.74;30.13
20037;BME280;10179;42.640;23.312;2022-10-30T12:46:12;94130.25;;;24.78;30.18
20037;BME280;10179;42.640;23.312;2022-10-30T12:49:42;94136.03;;;24.85;30.13
20037;BME280;10179;42.640;23.312;2022-10-30T12:51:59;94138.81;;;24.80;29.88
20037;BME280;10179;42.640;23.312;2022-10-30T12:54:34;94136.63;;;24.82;29.93
20037;BME280;10179;42.640;23.312;2022-10-30T12:57:10;94136.03;;;24.85;29.72
20037;BME280;10179;42.640;23.312;2022-10-30T13:00:06;94132.88;;;24.92;29.35
20037;BME280;10179;42.640;23.312;2022-10-30T13:02:44;94136.03;;;24.85;29.61
20037;BME280;10179;42.640;23.312;2022-10-30T13:07:50;94126.44;;;24.93;29.25
20037;BME280;10179;42.640;23.312;2022-10-30T13:10:47;94119.13;;;25.07;29.22
20037;BME280;10179;42.640;23.312;2022-10-30T13:13:23;94121.03;;;25.07;29.14
20037;BME280;10179;42.640;23.312;2022-10-30T13:15:53;94117.22;;;25.08;28.87
20037;BME280;10179;42.640;23.312;2022-10-30T13:18:21;93793.53;;;22.93;28.78
20037;BME280;10179;42.640;23.312;2022-10-30T13:29:12;94056.50;;;25.07;28.53
20037;BME280;10179;42.640;23.312;2022-10-30T13:37:34;94114.09;;;25.51;27.93
20037;BME280;10179;42.640;23.312;2022-10-30T13:40:40;94108.97;;;25.63;27.89
20037;BME280;10179;42.640;23.312;2022-10-30T13:43:36;94109.44;;;25.65;27.88
20037;BME280;10179;42.640;23.312;2022-10-30T13:46:32;94093.72;;;25.58;28.04
20037;BME280;10179;42.640;23.312;2022-10-30T13:49:17;94112.91;;;25.65;27.65
20037;BME280;10179;42.640;23.312;2022-10-30T13:54:26;94114.47;;;25.80;27.23
20037;BME280;10179;42.640;23.312;2022-10-30T13:56:54;93985.00;;;25.06;27.30
20037;BME280;10179;42.640;23.312;2022-10-30T14:02:28;94111.88;;;25.98;27.39
20037;BME280;10179;42.640;23.312;2022-10-30T14:05:06;94121.28;;;25.86;27.13
20037;BME280;10179;42.640;23.312;2022-10-30T14:07:45;94095.81;;;25.84;27.53
20037;BME280;10179;42.640;23.312;2022-10-30T14:10:44;94116.41;;;25.88;27.67
20037;BME280;10179;42.640;23.312;2022-10-30T14:13:20;94121.72;;;25.80;27.86
20037;BME280;10179;42.640;23.312;2022-10-30T14:16:01;94119.56;;;25.68;27.80
20037;BME280;10179;42.640;23.312;2022-10-30T14:18:30;94111.75;;;25.58;28.16
20037;BME280;10179;42.640;23.312;2022-10-30T14:20:58;94112.50;;;25.50;28.54
20037;BME280;10179;42.640;23.312;2022-10-30T14:23:43;94119.91;;;25.44;28.70
20037;BME280;10179;42.640;23.312;2022-10-30T14:28:35;94052.16;;;24.97;29.24
20037;BME280;10179;42.640;23.312;2022-10-30T14:31:02;94118.38;;;25.29;29.08